sensor_id;sensor_type;location;lat;lon;timestamp;P1;durP1;ratioP1;P2;durP2;ratioP2
71759;SDS011;59919;48.112;16.280;2022-10-22T00:00:24;2.97;;;2.40;;
71759;SDS011;59919;48.112;16.280;2022-10-22T00:02:58;3.15;;;2.75;;
71759;SDS011;59919;48.112;16.280;2022-10-22T00:05:29;3.00;;;2.70;;
71759;SDS011;59919;48.112;16.280;2022-10-22T00:08:00;3.22;;;2.67;;
71759;SDS011;59919;48.112;16.280;2022-10-22T00:10:35;2.90;;;2.28;;
71759;SDS011;59919;48.112;16.280;2022-10-22T00:13:09;3.83;;;2.85;;
71759;SDS011;59919;48.112;16.280;2022-10-22T00:15:40;3.45;;;2.67;;
71759;SDS011;59919;48.112;16.280;2022-10-22T00:18:20;3.38;;;2.67;;
71759;SDS011;59919;48.112;16.280;2022-10-22T00:20:54;3.72;;;3.03;;
71759;SDS011;59919;48.112;16.280;2022-10-22T00:23:25;3.80;;;2.83;;
71759;SDS011;59919;48.112;16.280;2022-10-22T00:25:56;3.00;;;2.55;;
71759;SDS011;59919;48.112;16.280;2022-10-22T00:28:27;3.90;;;2.85;;
71759;SDS011;59919;48.112;16.280;2022-10-22T00:31:01;2.88;;;2.47;;
71759;SDS011;59919;48.112;16.280;2022-10-22T00:33:34;3.25;;;2.90;;
71759;SDS011;59919;48.112;16.280;2022-10-22T00:36:06;3.10;;;2.50;;
71759;SDS011;59919;48.112;16.280;2022-10-22T00:38:39;3.40;;;2.72;;
71759;SDS011;59919;48.112;16.280;2022-10-22T00:41:15;3.42;;;2.80;;
71759;SDS011;59919;48.112;16.280;2022-10-22T00:43:54;4.18;;;2.85;;
71759;SDS011;59919;48.112;16.280;2022-10-22T00:46:27;3.00;;;2.65;;
71759;SDS011;59919;48.112;16.280;2022-10-22T00:49:01;3.58;;;2.90;;
71759;SDS011;59919;48.112;16.280;2022-10-22T00:51:36;3.55;;;2.90;;
71759;SDS011;59919;48.112;16.280;2022-10-22T00:54:10;3.08;;;2.65;;
71759;SDS011;59919;48.112;16.280;2022-10-22T00:56:43;3.17;;;2.80;;
71759;SDS011;59919;48.112;16.280;2022-10-22T00:59:15;3.05;;;2.70;;
71759;SDS011;59919;48.112;16.280;2022-10-22T01:01:50;3.70;;;2.67;;
71759;SDS011;59919;48.112;16.280;2022-10-22T01:04:22;3.28;;;2.97;;
71759;SDS011;59919;48.112;16.280;2022-10-22T01:06:56;2.83;;;2.40;;
71759;SDS011;59919;48.112;16.280;2022-10-22T01:10:16;3.35;;;2.88;;
71759;SDS011;59919;48.112;16.280;2022-10-22T01:12:36;3.88;;;2.50;;
71759;SDS011;59919;48.112;16.280;2022-10-22T01:18:23;3.10;;;2.70;;
71759;SDS011;59919;48.112;16.280;2022-10-22T01:24:11;3.33;;;2.70;;
71759;SDS011;59919;48.112;16.280;2022-10-22T01:32:22;2.85;;;2.30;;
71759;SDS011;59919;48.112;16.280;2022-10-22T01:35:03;4.30;;;2.83;;
71759;SDS011;59919;48.112;16.280;2022-10-22T01:37:43;2.63;;;2.42;;
71759;SDS011;59919;48.112;16.280;2022-10-22T01:40:20;3.83;;;3.00;;
71759;SDS011;59919;48.112;16.280;2022-10-22T01:43:03;2.92;;;2.63;;
71759;SDS011;59919;48.112;16.280;2022-10-22T01:45:47;3.53;;;2.83;;
71759;SDS011;59919;48.112;16.280;2022-10-22T01:51:24;2.75;;;2.42;;
71759;SDS011;59919;48.112;16.280;2022-10-22T01:57:18;4.40;;;2.88;;
71759;SDS011;59919;48.112;16.280;2022-10-22T01:59:56;3.22;;;2.80;;
71759;SDS011;59919;48.112;16.280;2022-10-22T02:05:29;2.60;;;2.40;;
71759;SDS011;59919;48.112;16.280;2022-10-22T02:08:08;2.67;;;2.47;;
71759;SDS011;59919;48.112;16.280;2022-10-22T02:10:42;3.63;;;2.45;;
71759;SDS011;59919;48.112;16.280;2022-10-22T02:13:22;3.97;;;2.42;;
71759;SDS011;59919;48.112;16.280;2022-10-22T02:15:59;3.00;;;2.70;;
71759;SDS011;59919;48.112;16.280;2022-10-22T02:18:34;4.25;;;2.72;;
71759;SDS011;59919;48.112;16.280;2022-10-22T02:21:09;3.65;;;2.60;;
71759;SDS011;59919;48.112;16.280;2022-10-22T02:23:40;3.00;;;2.67;;
71759;SDS011;59919;48.112;16.280;2022-10-22T02:26:18;2.97;;;2.67;;
71759;SDS011;59919;48.112;16.280;2022-10-22T02:29:23;2.65;;;2.45;;
71759;SDS011;59919;48.112;16.280;2022-10-22T02:34:31;3.55;;;2.75;;
71759;SDS011;59919;48.112;16.280;2022-10-22T02:37:02;3.22;;;2.67;;
71759;SDS011;59919;48.112;16.280;2022-10-22T02:39:36;3.47;;;2.58;;
71759;SDS011;59919;48.112;16.280;2022-10-22T02:42:11;3.33;;;2.95;;
71759;SDS011;59919;48.112;16.280;2022-10-22T02:44:42;3.00;;;2.70;;
71759;SDS011;59919;48.112;16.280;2022-10-22T02:47:15;3.22;;;2.88;;
71759;SDS011;59919;48.112;16.280;2022-10-22T02:49:46;2.95;;;2.65;;
71759;SDS011;59919;48.112;16.280;2022-10-22T02:52:17;2.90;;;2.60;;
71759;SDS011;59919;48.112;16.280;2022-10-22T02:54:51;3.63;;;2.83;;
71759;SDS011;59919;48.112;16.280;2022-10-22T02:57:22;4.20;;;2.80;;
71759;SDS011;59919;48.112;16.280;2022-10-22T02:59:53;2.95;;;2.65;;
71759;SDS011;59919;48.112;16.280;2022-10-22T03:02:24;3.42;;;2.80;;
71759;SDS011;59919;48.112;16.280;2022-10-22T03:04:56;3.17;;;2.70;;
71759;SDS011;59919;48.112;16.280;2022-10-22T03:07:27;3.95;;;2.70;;
71759;SDS011;59919;48.112;16.280;2022-10-22T03:09:58;4.55;;;2.90;;
71759;SDS011;59919;48.112;16.280;2022-10-22T03:12:31;3.78;;;2.60;;
71759;SDS011;59919;48.112;16.280;2022-10-22T03:15:05;3.83;;;2.75;;
71759;SDS011;59919;48.112;16.280;2022-10-22T03:17:40;2.83;;;2.63;;
71759;SDS011;59919;48.112;16.280;2022-10-22T03:20:11;2.90;;;2.50;;
71759;SDS011;59919;48.112;16.280;2022-10-22T03:22:42;3.20;;;2.90;;
71759;SDS011;59919;48.112;16.280;2022-10-22T03:25:18;3.40;;;2.78;;
71759;SDS011;59919;48.112;16.280;2022-10-22T03:27:52;3.30;;;2.90;;
71759;SDS011;59919;48.112;16.280;2022-10-22T03:30:26;4.10;;;2.70;;
71759;SDS011;59919;48.112;16.280;2022-10-22T03:32:57;3.08;;;2.78;;
71759;SDS011;59919;48.112;16.280;2022-10-22T03:35:29;3.50;;;2.70;;
71759;SDS011;59919;48.112;16.280;2022-10-22T03:38:00;3.13;;;2.65;;
71759;SDS011;59919;48.112;16.280;2022-10-22T03:40:31;2.80;;;2.30;;
71759;SDS011;59919;48.112;16.280;2022-10-22T03:43:03;3.70;;;2.35;;
71759;SDS011;59919;48.112;16.280;2022-10-22T03:45:36;3.83;;;2.60;;
71759;SDS011;59919;48.112;16.280;2022-10-22T03:48:10;3.58;;;2.75;;
71759;SDS011;59919;48.112;16.280;2022-10-22T03:50:44;3.05;;;2.65;;
71759;SDS011;59919;48.112;16.280;2022-10-22T03:53:20;2.60;;;2.40;;
71759;SDS011;59919;48.112;16.280;2022-10-22T03:55:51;3.03;;;2.55;;
71759;SDS011;59919;48.112;16.280;2022-10-22T03:58:25;3.00;;;2.70;;
71759;SDS011;59919;48.112;16.280;2022-10-22T04:01:06;3.05;;;2.75;;
71759;SDS011;59919;48.112;16.280;2022-10-22T04:03:39;3.85;;;3.03;;
71759;SDS011;59919;48.112;16.280;2022-10-22T04:06:11;3.03;;;2.72;;
71759;SDS011;59919;48.112;16.280;2022-10-22T04:08:45;3.22;;;2.80;;
71759;SDS011;59919;48.112;16.280;2022-10-22T04:11:16;3.22;;;2.65;;
71759;SDS011;59919;48.112;16.280;2022-10-22T04:13:50;4.05;;;2.70;;
71759;SDS011;59919;48.112;16.280;2022-10-22T04:16:24;2.88;;;2.58;;
71759;SDS011;59919;48.112;16.280;2022-10-22T04:19:00;3.22;;;2.78;;
71759;SDS011;59919;48.112;16.280;2022-10-22T04:21:34;2.88;;;2.50;;
71759;SDS011;59919;48.112;16.280;2022-10-22T04:24:07;3.45;;;2.70;;
71759;SDS011;59919;48.112;16.280;2022-10-22T04:26:39;3.33;;;2.80;;
71759;SDS011;59919;48.112;16.280;2022-10-22T04:29:16;2.55;;;2.30;;
71759;SDS011;59919;48.112;16.280;2022-10-22T04:31:47;3.00;;;2.58;;
71759;SDS011;59919;48.112;16.280;2022-10-22T04:34:18;4.45;;;2.97;;
71759;SDS011;59919;48.112;16.280;2022-10-22T04:36:56;3.47;;;3.00;;
71759;SDS011;59919;48.112;16.280;2022-10-22T04:39:30;3.55;;;2.65;;
71759;SDS011;59919;48.112;16.280;2022-10-22T04:42:01;3.25;;;2.95;;
71759;SDS011;59919;48.112;16.280;2022-10-22T04:44:32;3.55;;;2.78;;
71759;SDS011;59919;48.112;16.280;2022-10-22T04:47:03;4.00;;;2.80;;
71759;SDS011;59919;48.112;16.280;2022-10-22T04:49:37;3.75;;;2.88;;
71759;SDS011;59919;48.112;16.280;2022-10-22T04:52:15;3.20;;;2.90;;
71759;SDS011;59919;48.112;16.280;2022-10-22T04:54:46;2.95;;;2.65;;
71759;SDS011;59919;48.112;16.280;2022-10-22T04:57:17;4.18;;;2.90;;
71759;SDS011;59919;48.112;16.280;2022-10-22T04:59:51;3.38;;;2.95;;
71759;SDS011;59919;48.112;16.280;2022-10-22T05:02:22;3.20;;;2.90;;
71759;SDS011;59919;48.112;16.280;2022-10-22T05:04:58;2.97;;;2.78;;
71759;SDS011;59919;48.112;16.280;2022-10-22T05:07:29;6.68;;;3.17;;
71759;SDS011;59919;48.112;16.280;2022-10-22T05:10:00;3.80;;;2.78;;
71759;SDS011;59919;48.112;16.280;2022-10-22T05:12:32;5.03;;;3.22;;
71759;SDS011;59919;48.112;16.280;2022-10-22T05:15:04;4.10;;;2.97;;
71759;SDS011;59919;48.112;16.280;2022-10-22T05:17:36;3.05;;;2.72;;
71759;SDS011;59919;48.112;16.280;2022-10-22T05:20:07;3.53;;;3.03;;
71759;SDS011;59919;48.112;16.280;2022-10-22T05:22:41;4.13;;;3.30;;
71759;SDS011;59919;48.112;16.280;2022-10-22T05:25:12;3.10;;;2.80;;
71759;SDS011;59919;48.112;16.280;2022-10-22T05:27:47;3.58;;;3.00;;
71759;SDS011;59919;48.112;16.280;2022-10-22T05:30:20;3.30;;;2.70;;
71759;SDS011;59919;48.112;16.280;2022-10-22T05:32:54;5.03;;;3.15;;
71759;SDS011;59919;48.112;16.280;2022-10-22T05:35:25;3.35;;;2.92;;
71759;SDS011;59919;48.112;16.280;2022-10-22T05:38:01;4.38;;;3.10;;
71759;SDS011;59919;48.112;16.280;2022-10-22T05:40:34;2.95;;;2.67;;
71759;SDS011;59919;48.112;16.280;2022-10-22T05:43:05;3.42;;;2.70;;
71759;SDS011;59919;48.112;16.280;2022-10-22T05:45:37;2.95;;;2.60;;
71759;SDS011;59919;48.112;16.280;2022-10-22T05:48:11;4.15;;;3.08;;
71759;SDS011;59919;48.112;16.280;2022-10-22T05:50:45;4.13;;;3.10;;
71759;SDS011;59919;48.112;16.280;2022-10-22T05:53:20;4.13;;;2.80;;
71759;SDS011;59919;48.112;16.280;2022-10-22T05:55:51;3.00;;;2.70;;
71759;SDS011;59919;48.112;16.280;2022-10-22T05:58:22;3.63;;;2.80;;
71759;SDS011;59919;48.112;16.280;2022-10-22T06:00:53;3.45;;;3.15;;
71759;SDS011;59919;48.112;16.280;2022-10-22T06:03:30;3.40;;;2.60;;
71759;SDS011;59919;48.112;16.280;2022-10-22T06:06:02;3.40;;;2.78;;
71759;SDS011;59919;48.112;16.280;2022-10-22T06:08:48;3.10;;;2.72;;
71759;SDS011;59919;48.112;16.280;2022-10-22T06:11:22;4.10;;;3.05;;
71759;SDS011;59919;48.112;16.280;2022-10-22T06:13:53;3.38;;;3.08;;
71759;SDS011;59919;48.112;16.280;2022-10-22T06:16:29;3.42;;;2.90;;
71759;SDS011;59919;48.112;16.280;2022-10-22T06:19:00;3.47;;;3.08;;
71759;SDS011;59919;48.112;16.280;2022-10-22T06:21:34;3.38;;;3.08;;
71759;SDS011;59919;48.112;16.280;2022-10-22T06:24:08;3.33;;;2.90;;
71759;SDS011;59919;48.112;16.280;2022-10-22T06:26:40;3.65;;;3.03;;
71759;SDS011;59919;48.112;16.280;2022-10-22T06:29:11;3.40;;;2.90;;
71759;SDS011;59919;48.112;16.280;2022-10-22T06:31:42;3.13;;;2.83;;
71759;SDS011;59919;48.112;16.280;2022-10-22T06:34:16;3.50;;;3.08;;
71759;SDS011;59919;48.112;16.280;2022-10-22T06:36:51;3.63;;;3.17;;
71759;SDS011;59919;48.112;16.280;2022-10-22T06:39:24;3.60;;;3.20;;
71759;SDS011;59919;48.112;16.280;2022-10-22T06:41:57;3.20;;;2.90;;
71759;SDS011;59919;48.112;16.280;2022-10-22T06:44:28;3.20;;;2.90;;
71759;SDS011;59919;48.112;16.280;2022-10-22T06:46:59;3.65;;;2.83;;
71759;SDS011;59919;48.112;16.280;2022-10-22T06:49:30;4.35;;;2.75;;
71759;SDS011;59919;48.112;16.280;2022-10-22T06:52:01;3.90;;;3.03;;
71759;SDS011;59919;48.112;16.280;2022-10-22T06:54:32;3.92;;;3.25;;
71759;SDS011;59919;48.112;16.280;2022-10-22T06:57:06;3.92;;;2.95;;
71759;SDS011;59919;48.112;16.280;2022-10-22T06:59:39;3.33;;;2.95;;
71759;SDS011;59919;48.112;16.280;2022-10-22T07:02:10;3.25;;;2.80;;
71759;SDS011;59919;48.112;16.280;2022-10-22T07:04:47;3.30;;;3.00;;
71759;SDS011;59919;48.112;16.280;2022-10-22T07:07:18;3.58;;;3.00;;
71759;SDS011;59919;48.112;16.280;2022-10-22T07:09:52;4.03;;;3.03;;
71759;SDS011;59919;48.112;16.280;2022-10-22T07:12:25;4.18;;;3.03;;
71759;SDS011;59919;48.112;16.280;2022-10-22T07:15:01;3.35;;;2.90;;
71759;SDS011;59919;48.112;16.280;2022-10-22T07:17:34;3.67;;;2.95;;
71759;SDS011;59919;48.112;16.280;2022-10-22T07:20:05;3.47;;;3.17;;
71759;SDS011;59919;48.112;16.280;2022-10-22T07:22:39;3.95;;;3.28;;
71759;SDS011;59919;48.112;16.280;2022-10-22T07:25:11;3.45;;;3.03;;
71759;SDS011;59919;48.112;16.280;2022-10-22T07:27:43;2.97;;;2.50;;
71759;SDS011;59919;48.112;16.280;2022-10-22T07:30:14;3.42;;;3.00;;
71759;SDS011;59919;48.112;16.280;2022-10-22T07:32:45;3.17;;;2.88;;
71759;SDS011;59919;48.112;16.280;2022-10-22T07:35:19;3.17;;;2.88;;
71759;SDS011;59919;48.112;16.280;2022-10-22T07:37:50;5.22;;;2.63;;
71759;SDS011;59919;48.112;16.280;2022-10-22T07:40:21;3.80;;;2.05;;
71759;SDS011;59919;48.112;16.280;2022-10-22T07:42:54;3.08;;;1.90;;
71759;SDS011;59919;48.112;16.280;2022-10-22T07:45:28;5.10;;;2.05;;
71759;SDS011;59919;48.112;16.280;2022-10-22T07:48:04;2.20;;;2.00;;
71759;SDS011;59919;48.112;16.280;2022-10-22T07:50:38;2.28;;;1.92;;
71759;SDS011;59919;48.112;16.280;2022-10-22T07:53:10;4.38;;;2.50;;
71759;SDS011;59919;48.112;16.280;2022-10-22T07:55:46;3.78;;;2.00;;
71759;SDS011;59919;48.112;16.280;2022-10-22T07:58:19;2.20;;;2.00;;
71759;SDS011;59919;48.112;16.280;2022-10-22T08:00:54;3.17;;;2.38;;
71759;SDS011;59919;48.112;16.280;2022-10-22T08:03:30;3.27;;;2.30;;
71759;SDS011;59919;48.112;16.280;2022-10-22T08:06:05;3.90;;;2.10;;
71759;SDS011;59919;48.112;16.280;2022-10-22T08:08:38;5.13;;;2.22;;
71759;SDS011;59919;48.112;16.280;2022-10-22T08:11:10;3.90;;;2.22;;
71759;SDS011;59919;48.112;16.280;2022-10-22T08:13:42;2.45;;;2.20;;
71759;SDS011;59919;48.112;16.280;2022-10-22T08:16:13;6.72;;;2.42;;
71759;SDS011;59919;48.112;16.280;2022-10-22T08:18:44;3.83;;;2.33;;
71759;SDS011;59919;48.112;16.280;2022-10-22T08:21:16;3.13;;;2.20;;
71759;SDS011;59919;48.112;16.280;2022-10-22T08:23:47;5.60;;;2.60;;
71759;SDS011;59919;48.112;16.280;2022-10-22T08:26:18;6.53;;;2.50;;
71759;SDS011;59919;48.112;16.280;2022-10-22T08:28:52;3.63;;;2.25;;
71759;SDS011;59919;48.112;16.280;2022-10-22T08:31:26;7.50;;;2.90;;
71759;SDS011;59919;48.112;16.280;2022-10-22T08:33:57;4.93;;;2.67;;
71759;SDS011;59919;48.112;16.280;2022-10-22T08:36:28;11.43;;;2.97;;
71759;SDS011;59919;48.112;16.280;2022-10-22T08:38:59;24.70;;;4.30;;
71759;SDS011;59919;48.112;16.280;2022-10-22T08:41:30;19.88;;;4.30;;
71759;SDS011;59919;48.112;16.280;2022-10-22T08:44:14;17.02;;;3.20;;
71759;SDS011;59919;48.112;16.280;2022-10-22T08:49:45;14.38;;;3.60;;
71759;SDS011;59919;48.112;16.280;2022-10-22T08:52:16;12.65;;;3.97;;
71759;SDS011;59919;48.112;16.280;2022-10-22T08:54:56;16.35;;;3.97;;
71759;SDS011;59919;48.112;16.280;2022-10-22T09:00:22;9.43;;;4.10;;
71759;SDS011;59919;48.112;16.280;2022-10-22T09:06:18;15.15;;;3.90;;
71759;SDS011;59919;48.112;16.280;2022-10-22T09:08:58;11.82;;;3.78;;
71759;SDS011;59919;48.112;16.280;2022-10-22T09:11:40;17.08;;;3.78;;
71759;SDS011;59919;48.112;16.280;2022-10-22T09:14:15;17.67;;;4.05;;
71759;SDS011;59919;48.112;16.280;2022-10-22T09:16:57;14.68;;;4.15;;
71759;SDS011;59919;48.112;16.280;2022-10-22T09:25:30;12.05;;;4.22;;
71759;SDS011;59919;48.112;16.280;2022-10-22T09:28:08;11.43;;;3.40;;
71759;SDS011;59919;48.112;16.280;2022-10-22T09:30:39;8.50;;;3.50;;
71759;SDS011;59919;48.112;16.280;2022-10-22T09:33:12;10.60;;;3.47;;
71759;SDS011;59919;48.112;16.280;2022-10-22T09:35:53;11.73;;;3.35;;
71759;SDS011;59919;48.112;16.280;2022-10-22T09:38:32;10.40;;;3.28;;
71759;SDS011;59919;48.112;16.280;2022-10-22T09:41:08;13.80;;;3.88;;
71759;SDS011;59919;48.112;16.280;2022-10-22T09:43:39;8.38;;;3.20;;
71759;SDS011;59919;48.112;16.280;2022-10-22T09:46:31;8.70;;;3.30;;
71759;SDS011;59919;48.112;16.280;2022-10-22T09:49:10;12.43;;;3.45;;
71759;SDS011;59919;48.112;16.280;2022-10-22T09:51:55;17.42;;;4.20;;
71759;SDS011;59919;48.112;16.280;2022-10-22T09:57:14;10.82;;;3.50;;
71759;SDS011;59919;48.112;16.280;2022-10-22T09:59:47;12.77;;;3.55;;
71759;SDS011;59919;48.112;16.280;2022-10-22T10:02:22;7.53;;;3.67;;
71759;SDS011;59919;48.112;16.280;2022-10-22T10:05:04;7.93;;;3.63;;
71759;SDS011;59919;48.112;16.280;2022-10-22T10:07:36;6.90;;;3.08;;
71759;SDS011;59919;48.112;16.280;2022-10-22T10:10:27;7.63;;;3.30;;
71759;SDS011;59919;48.112;16.280;2022-10-22T10:22:01;6.65;;;3.45;;
71759;SDS011;59919;48.112;16.280;2022-10-22T10:30:14;10.05;;;3.30;;
71759;SDS011;59919;48.112;16.280;2022-10-22T10:35:42;6.97;;;3.03;;
71759;SDS011;59919;48.112;16.280;2022-10-22T10:41:31;5.70;;;2.83;;
71759;SDS011;59919;48.112;16.280;2022-10-22T10:47:29;7.90;;;3.17;;
71759;SDS011;59919;48.112;16.280;2022-10-22T11:02:13;6.10;;;3.00;;
71759;SDS011;59919;48.112;16.280;2022-10-22T11:11:04;6.10;;;3.30;;
71759;SDS011;59919;48.112;16.280;2022-10-22T11:13:46;6.53;;;3.00;;
71759;SDS011;59919;48.112;16.280;2022-10-22T11:16:36;9.68;;;2.92;;
71759;SDS011;59919;48.112;16.280;2022-10-22T11:19:35;8.52;;;3.20;;
71759;SDS011;59919;48.112;16.280;2022-10-22T11:22:19;11.10;;;3.40;;
71759;SDS011;59919;48.112;16.280;2022-10-22T11:25:16;7.60;;;3.00;;
71759;SDS011;59919;48.112;16.280;2022-10-22T11:27:52;11.57;;;3.83;;
71759;SDS011;59919;48.112;16.280;2022-10-22T11:30:29;9.15;;;3.65;;
71759;SDS011;59919;48.112;16.280;2022-10-22T11:33:08;7.53;;;3.13;;
71759;SDS011;59919;48.112;16.280;2022-10-22T11:35:47;11.45;;;3.35;;
71759;SDS011;59919;48.112;16.280;2022-10-22T11:38:23;7.18;;;3.22;;
71759;SDS011;59919;48.112;16.280;2022-10-22T11:46:43;8.00;;;3.67;;
71759;SDS011;59919;48.112;16.280;2022-10-22T11:49:18;7.97;;;3.00;;
71759;SDS011;59919;48.112;16.280;2022-10-22T11:54:56;6.20;;;3.45;;
71759;SDS011;59919;48.112;16.280;2022-10-22T11:57:36;10.45;;;3.92;;
71759;SDS011;59919;48.112;16.280;2022-10-22T12:03:23;8.57;;;4.00;;
71759;SDS011;59919;48.112;16.280;2022-10-22T12:17:13;6.95;;;2.75;;
71759;SDS011;59919;48.112;16.280;2022-10-22T12:19:48;7.05;;;3.45;;
71759;SDS011;59919;48.112;16.280;2022-10-22T12:22:32;7.25;;;3.38;;
71759;SDS011;59919;48.112;16.280;2022-10-22T12:25:11;6.28;;;3.70;;
71759;SDS011;59919;48.112;16.280;2022-10-22T12:27:51;8.73;;;3.13;;
71759;SDS011;59919;48.112;16.280;2022-10-22T12:30:28;19.55;;;4.03;;
71759;SDS011;59919;48.112;16.280;2022-10-22T12:33:06;11.52;;;3.55;;
71759;SDS011;59919;48.112;16.280;2022-10-22T12:35:48;12.38;;;3.05;;
71759;SDS011;59919;48.112;16.280;2022-10-22T12:38:45;11.82;;;3.40;;
71759;SDS011;59919;48.112;16.280;2022-10-22T12:41:37;13.93;;;3.25;;
71759;SDS011;59919;48.112;16.280;2022-10-22T12:44:29;11.15;;;3.67;;
71759;SDS011;59919;48.112;16.280;2022-10-22T12:47:25;7.13;;;3.03;;
71759;SDS011;59919;48.112;16.280;2022-10-22T12:50:21;6.63;;;3.28;;
71759;SDS011;59919;48.112;16.280;2022-10-22T12:56:15;8.57;;;2.80;;
71759;SDS011;59919;48.112;16.280;2022-10-22T13:02:18;9.57;;;3.10;;
71759;SDS011;59919;48.112;16.280;2022-10-22T13:05:16;7.70;;;2.80;;
71759;SDS011;59919;48.112;16.280;2022-10-22T13:08:19;7.72;;;3.25;;
71759;SDS011;59919;48.112;16.280;2022-10-22T13:11:18;9.18;;;3.13;;
71759;SDS011;59919;48.112;16.280;2022-10-22T13:14:15;12.75;;;2.92;;
71759;SDS011;59919;48.112;16.280;2022-10-22T13:20:21;7.50;;;2.95;;
71759;SDS011;59919;48.112;16.280;2022-10-22T13:23:18;10.10;;;3.50;;
71759;SDS011;59919;48.112;16.280;2022-10-22T13:26:12;9.63;;;3.10;;
71759;SDS011;59919;48.112;16.280;2022-10-22T13:29:09;7.20;;;3.30;;
71759;SDS011;59919;48.112;16.280;2022-10-22T13:32:02;9.30;;;2.83;;
71759;SDS011;59919;48.112;16.280;2022-10-22T13:34:54;7.20;;;3.05;;
71759;SDS011;59919;48.112;16.280;2022-10-22T13:37:49;10.63;;;3.37;;
71759;SDS011;59919;48.112;16.280;2022-10-22T13:40:43;6.57;;;2.70;;
71759;SDS011;59919;48.112;16.280;2022-10-22T13:43:35;12.48;;;3.55;;
71759;SDS011;59919;48.112;16.280;2022-10-22T13:46:31;7.32;;;2.70;;
71759;SDS011;59919;48.112;16.280;2022-10-22T13:49:22;8.55;;;2.95;;
71759;SDS011;59919;48.112;16.280;2022-10-22T13:52:39;6.43;;;2.85;;
71759;SDS011;59919;48.112;16.280;2022-10-22T13:58:26;7.15;;;2.72;;
71759;SDS011;59919;48.112;16.280;2022-10-22T14:01:20;8.98;;;2.50;;
71759;SDS011;59919;48.112;16.280;2022-10-22T14:04:13;7.07;;;2.58;;
71759;SDS011;59919;48.112;16.280;2022-10-22T14:07:14;6.38;;;2.65;;
71759;SDS011;59919;48.112;16.280;2022-10-22T14:10:39;6.93;;;2.70;;
71759;SDS011;59919;48.112;16.280;2022-10-22T14:13:24;6.97;;;2.70;;
71759;SDS011;59919;48.112;16.280;2022-10-22T14:16:20;7.57;;;2.95;;
71759;SDS011;59919;48.112;16.280;2022-10-22T14:19:16;7.68;;;2.60;;
71759;SDS011;59919;48.112;16.280;2022-10-22T14:22:15;8.38;;;2.67;;
71759;SDS011;59919;48.112;16.280;2022-10-22T14:25:21;7.90;;;2.63;;
71759;SDS011;59919;48.112;16.280;2022-10-22T14:28:14;9.40;;;3.50;;
71759;SDS011;59919;48.112;16.280;2022-10-22T14:31:09;5.85;;;2.88;;
71759;SDS011;59919;48.112;16.280;2022-10-22T14:34:03;8.57;;;2.60;;
71759;SDS011;59919;48.112;16.280;2022-10-22T14:36:56;5.07;;;2.28;;
71759;SDS011;59919;48.112;16.280;2022-10-22T14:39:47;7.47;;;2.47;;
71759;SDS011;59919;48.112;16.280;2022-10-22T14:42:43;8.73;;;2.90;;
71759;SDS011;59919;48.112;16.280;2022-10-22T14:45:40;7.00;;;2.72;;
71759;SDS011;59919;48.112;16.280;2022-10-22T14:48:34;7.35;;;2.60;;
71759;SDS011;59919;48.112;16.280;2022-10-22T14:51:25;7.78;;;3.22;;
71759;SDS011;59919;48.112;16.280;2022-10-22T14:54:17;6.45;;;2.53;;
71759;SDS011;59919;48.112;16.280;2022-10-22T14:57:08;5.35;;;2.50;;
71759;SDS011;59919;48.112;16.280;2022-10-22T15:00:08;7.07;;;2.93;;
71759;SDS011;59919;48.112;16.280;2022-10-22T15:03:04;6.63;;;2.65;;
71759;SDS011;59919;48.112;16.280;2022-10-22T15:05:56;7.47;;;3.20;;
71759;SDS011;59919;48.112;16.280;2022-10-22T15:08:47;10.55;;;3.60;;
71759;SDS011;59919;48.112;16.280;2022-10-22T15:11:39;7.75;;;2.90;;
71759;SDS011;59919;48.112;16.280;2022-10-22T15:14:32;4.97;;;2.83;;
71759;SDS011;59919;48.112;16.280;2022-10-22T15:17:26;7.20;;;2.47;;
71759;SDS011;59919;48.112;16.280;2022-10-22T15:20:18;6.70;;;2.50;;
71759;SDS011;59919;48.112;16.280;2022-10-22T15:23:09;7.28;;;2.60;;
71759;SDS011;59919;48.112;16.280;2022-10-22T15:26:00;4.03;;;2.78;;
71759;SDS011;59919;48.112;16.280;2022-10-22T15:28:56;5.07;;;2.70;;
71759;SDS011;59919;48.112;16.280;2022-10-22T15:31:53;4.75;;;2.33;;
71759;SDS011;59919;48.112;16.280;2022-10-22T15:37:42;3.13;;;2.38;;
71759;SDS011;59919;48.112;16.280;2022-10-22T15:40:35;6.15;;;2.42;;
71759;SDS011;59919;48.112;16.280;2022-10-22T15:43:26;10.85;;;2.80;;
71759;SDS011;59919;48.112;16.280;2022-10-22T15:46:20;8.30;;;2.38;;
71759;SDS011;59919;48.112;16.280;2022-10-22T15:49:15;10.38;;;2.60;;
71759;SDS011;59919;48.112;16.280;2022-10-22T15:52:10;4.68;;;2.58;;
71759;SDS011;59919;48.112;16.280;2022-10-22T15:55:02;5.40;;;2.42;;
71759;SDS011;59919;48.112;16.280;2022-10-22T15:58:00;6.93;;;2.38;;
71759;SDS011;59919;48.112;16.280;2022-10-22T16:00:51;7.00;;;2.50;;
71759;SDS011;59919;48.112;16.280;2022-10-22T16:03:42;5.28;;;2.60;;
71759;SDS011;59919;48.112;16.280;2022-10-22T16:06:46;7.25;;;2.40;;
71759;SDS011;59919;48.112;16.280;2022-10-22T16:09:38;10.73;;;3.00;;
71759;SDS011;59919;48.112;16.280;2022-10-22T16:12:30;6.40;;;2.42;;
71759;SDS011;59919;48.112;16.280;2022-10-22T16:15:21;10.30;;;2.65;;
71759;SDS011;59919;48.112;16.280;2022-10-22T16:18:12;10.68;;;2.60;;
71759;SDS011;59919;48.112;16.280;2022-10-22T16:21:04;8.43;;;2.53;;
71759;SDS011;59919;48.112;16.280;2022-10-22T16:23:57;13.13;;;3.30;;
71759;SDS011;59919;48.112;16.280;2022-10-22T16:26:52;6.97;;;2.92;;
71759;SDS011;59919;48.112;16.280;2022-10-22T16:29:46;7.18;;;2.65;;
71759;SDS011;59919;48.112;16.280;2022-10-22T16:32:40;3.88;;;2.50;;
71759;SDS011;59919;48.112;16.280;2022-10-22T16:35:37;6.95;;;2.40;;
71759;SDS011;59919;48.112;16.280;2022-10-22T16:38:30;8.73;;;2.40;;
71759;SDS011;59919;48.112;16.280;2022-10-22T16:41:24;5.25;;;2.13;;
71759;SDS011;59919;48.112;16.280;2022-10-22T16:44:23;4.93;;;2.40;;
71759;SDS011;59919;48.112;16.280;2022-10-22T16:47:14;6.30;;;2.30;;
71759;SDS011;59919;48.112;16.280;2022-10-22T16:50:09;8.07;;;2.25;;
71759;SDS011;59919;48.112;16.280;2022-10-22T16:53:00;6.80;;;2.50;;
71759;SDS011;59919;48.112;16.280;2022-10-22T16:55:54;3.88;;;2.20;;
71759;SDS011;59919;48.112;16.280;2022-10-22T16:58:46;4.90;;;2.22;;
71759;SDS011;59919;48.112;16.280;2022-10-22T17:01:41;5.37;;;2.20;;
71759;SDS011;59919;48.112;16.280;2022-10-22T17:04:32;9.25;;;2.85;;
71759;SDS011;59919;48.112;16.280;2022-10-22T17:07:29;6.75;;;2.22;;
71759;SDS011;59919;48.112;16.280;2022-10-22T17:10:20;7.55;;;2.42;;
71759;SDS011;59919;48.112;16.280;2022-10-22T17:13:12;6.72;;;2.42;;
71759;SDS011;59919;48.112;16.280;2022-10-22T17:16:07;4.55;;;2.30;;
71759;SDS011;59919;48.112;16.280;2022-10-22T17:19:00;4.75;;;2.55;;
71759;SDS011;59919;48.112;16.280;2022-10-22T17:21:53;6.05;;;2.38;;
71759;SDS011;59919;48.112;16.280;2022-10-22T17:24:45;6.22;;;2.55;;
71759;SDS011;59919;48.112;16.280;2022-10-22T17:27:38;5.22;;;2.05;;
71759;SDS011;59919;48.112;16.280;2022-10-22T17:30:30;4.70;;;2.70;;
71759;SDS011;59919;48.112;16.280;2022-10-22T17:33:22;4.60;;;2.50;;
71759;SDS011;59919;48.112;16.280;2022-10-22T17:36:19;7.80;;;1.95;;
71759;SDS011;59919;48.112;16.280;2022-10-22T17:39:27;5.03;;;2.33;;
71759;SDS011;59919;48.112;16.280;2022-10-22T17:42:18;3.25;;;2.17;;
71759;SDS011;59919;48.112;16.280;2022-10-22T17:45:09;4.88;;;2.17;;
71759;SDS011;59919;48.112;16.280;2022-10-22T17:48:01;4.30;;;2.33;;
71759;SDS011;59919;48.112;16.280;2022-10-22T17:50:52;5.22;;;2.08;;
71759;SDS011;59919;48.112;16.280;2022-10-22T17:53:43;4.63;;;2.17;;